createdAt,value
2019-03-26T00:00:47.749Z,12.37
2019-03-26T00:03:16.843Z,7.67
2019-03-26T00:05:46.072Z,11.40
2019-03-26T00:08:14.464Z,16.47
2019-03-26T00:10:43.514Z,13.63
2019-03-26T00:13:12.600Z,14.83
2019-03-26T00:15:41.639Z,20.53
2019-03-26T00:18:11.108Z,9.63
2019-03-26T00:20:39.752Z,11.13
2019-03-26T00:23:10.932Z,18.07
2019-03-26T00:25:39.539Z,14.03
2019-03-26T00:28:07.973Z,8.63
2019-03-26T00:30:36.984Z,11.07
2019-03-26T00:33:05.677Z,13.80
2019-03-26T00:35:34.340Z,11.40
2019-03-26T00:38:03.331Z,15.17
2019-03-26T00:40:32.153Z,10.83
2019-03-26T00:43:01.164Z,10.57
2019-03-26T00:45:30.115Z,9.57
2019-03-26T00:47:59.333Z,12.07
2019-03-26T00:50:28.603Z,5.77
2019-03-26T00:52:57.319Z,12.97
2019-03-26T00:55:26.597Z,5.57
2019-03-26T00:57:55.255Z,10.40
2019-03-26T01:00:38.291Z,7.40
2019-03-26T01:03:06.958Z,9.77
2019-03-26T01:05:35.929Z,15.53
2019-03-26T01:08:04.647Z,10.70
2019-03-26T01:10:33.759Z,15.17
2019-03-26T01:13:02.475Z,16.60
2019-03-26T01:15:31.767Z,14.63
2019-03-26T01:18:00.885Z,13.90
2019-03-26T01:20:29.847Z,13.90
2019-03-26T01:22:58.839Z,11.53
2019-03-26T01:25:27.739Z,14.00
2019-03-26T01:27:57.023Z,15.47
2019-03-26T01:30:25.840Z,14.57
2019-03-26T01:32:54.803Z,27.33
2019-03-26T01:35:24.009Z,9.57
2019-03-26T01:37:52.714Z,13.27
2019-03-26T01:40:21.895Z,10.43
2019-03-26T01:42:51.018Z,10.50
2019-03-26T01:45:20.271Z,17.07
2019-03-26T01:47:48.990Z,5.43
2019-03-26T01:50:18.170Z,7.30
2019-03-26T01:52:47.298Z,10.03
2019-03-26T01:55:15.958Z,14.90
2019-03-26T01:57:44.614Z,12.17
2019-03-26T02:00:13.656Z,15.20
2019-03-26T02:02:42.740Z,15.27
2019-03-26T02:05:11.619Z,9.77
2019-03-26T02:07:40.937Z,8.97
2019-03-26T02:10:10.867Z,11.13
2019-03-26T02:12:39.525Z,15.43
2019-03-26T02:15:10.738Z,13.43
2019-03-26T02:17:39.959Z,22.20
2019-03-26T02:20:08.723Z,20.03
2019-03-26T02:22:37.630Z,21.67
2019-03-26T02:25:06.971Z,10.43
2019-03-26T02:27:35.935Z,10.47
2019-03-26T02:30:04.904Z,14.20
2019-03-26T02:32:33.622Z,8.60
2019-03-26T02:35:17.073Z,14.63
2019-03-26T02:37:33.249Z,10.03
2019-03-26T02:40:02.233Z,5.53
2019-03-26T02:42:31.109Z,9.57
2019-03-26T02:44:59.917Z,15.40
2019-03-26T02:47:28.892Z,18.87
2019-03-26T02:49:57.920Z,13.83
2019-03-26T02:52:27.404Z,27.23
2019-03-26T02:54:56.379Z,13.30
2019-03-26T02:57:25.129Z,16.00
2019-03-26T02:59:53.857Z,8.80
2019-03-26T03:02:23.100Z,12.13
2019-03-26T03:04:52.043Z,11.33
2019-03-26T03:07:20.930Z,11.60
2019-03-26T03:09:49.856Z,7.97
2019-03-26T03:12:18.828Z,12.13
2019-03-26T03:14:48.048Z,21.30
2019-03-26T03:17:17.019Z,15.93
2019-03-26T03:19:46.340Z,17.70
2019-03-26T03:22:15.320Z,9.53
2019-03-26T03:24:44.609Z,13.17
2019-03-26T03:27:13.294Z,16.03
2019-03-26T03:29:42.008Z,20.67
2019-03-26T03:32:11.082Z,14.57
2019-03-26T03:34:40.193Z,17.20
2019-03-26T03:37:08.703Z,15.80
2019-03-26T03:39:37.256Z,13.97
2019-03-26T03:42:06.037Z,14.33
2019-03-26T03:44:45.976Z,15.83
2019-03-26T03:47:18.719Z,19.60
2019-03-26T03:49:50.130Z,11.67
2019-03-26T03:52:22.314Z,14.43
2019-03-26T03:54:53.909Z,12.77
2019-03-26T03:57:26.031Z,11.17
2019-03-26T03:59:57.053Z,10.23
2019-03-26T04:02:26.231Z,19.20
2019-03-26T04:04:55.315Z,9.70
2019-03-26T04:07:24.133Z,11.97
2019-03-26T04:09:53.101Z,12.67
2019-03-26T04:12:22.124Z,9.50
2019-03-26T04:14:51.170Z,10.23
2019-03-26T04:17:20.082Z,15.67
2019-03-26T04:19:48.795Z,13.87
2019-03-26T04:22:17.769Z,13.50
2019-03-26T04:24:46.769Z,13.17
2019-03-26T04:27:15.746Z,14.83
2019-03-26T04:29:44.744Z,19.00
2019-03-26T04:32:13.973Z,12.73
2019-03-26T04:34:42.938Z,13.13
2019-03-26T04:37:11.946Z,21.70
2019-03-26T04:39:41.073Z,23.57
2019-03-26T04:42:09.571Z,22.53
2019-03-26T04:44:38.411Z,21.37
2019-03-26T04:47:07.604Z,19.93
2019-03-26T04:49:35.885Z,17.77
2019-03-26T04:52:04.172Z,17.17
2019-03-26T04:54:32.411Z,15.17
2019-03-26T04:57:00.758Z,14.57
2019-03-26T04:59:28.986Z,12.87
2019-03-26T05:01:58.638Z,8.17
2019-03-26T05:04:26.868Z,12.23
2019-03-26T05:06:55.116Z,23.27
2019-03-26T05:09:23.427Z,10.77
2019-03-26T05:11:53.061Z,17.30
2019-03-26T05:14:21.383Z,6.80
2019-03-26T05:16:49.636Z,12.97
2019-03-26T05:19:18.024Z,11.17
2019-03-26T05:21:46.279Z,10.30
2019-03-26T05:24:14.515Z,18.67
2019-03-26T05:26:42.767Z,12.73
2019-03-26T05:29:11.191Z,18.00
2019-03-26T05:31:39.492Z,12.67
2019-03-26T05:34:07.739Z,16.67
2019-03-26T05:36:35.987Z,17.10
2019-03-26T05:39:05.572Z,16.80
2019-03-26T05:41:33.837Z,14.43
2019-03-26T05:44:02.061Z,16.17
2019-03-26T05:46:30.948Z,20.73
2019-03-26T05:48:59.195Z,13.33
2019-03-26T05:51:27.991Z,15.57
2019-03-26T05:53:56.531Z,12.17
2019-03-26T05:56:30.425Z,18.33
2019-03-26T05:58:57.612Z,21.03
2019-03-26T06:01:25.944Z,16.40
2019-03-26T06:03:54.183Z,18.17
2019-03-26T06:06:22.420Z,18.47
2019-03-26T06:08:50.658Z,13.03
2019-03-26T06:11:18.921Z,20.33
2019-03-26T06:13:47.143Z,18.80
2019-03-26T06:16:15.488Z,18.73
2019-03-26T06:18:43.737Z,13.40
2019-03-26T06:21:12.028Z,25.60
2019-03-26T06:23:40.293Z,11.23
2019-03-26T06:26:08.640Z,15.27
2019-03-26T06:28:36.863Z,18.10
2019-03-26T06:31:05.155Z,14.33
2019-03-26T06:33:33.563Z,16.67
2019-03-26T06:36:01.833Z,14.80
2019-03-26T06:38:30.055Z,23.33
2019-03-26T06:40:58.296Z,16.70
2019-03-26T06:43:26.559Z,16.97
2019-03-26T06:45:54.813Z,17.67
2019-03-26T06:48:23.059Z,23.40
2019-03-26T06:50:51.312Z,18.50
2019-03-26T06:53:19.543Z,16.40
2019-03-26T06:55:47.800Z,14.47
2019-03-26T06:58:16.092Z,16.10
2019-03-26T07:00:44.435Z,15.77
2019-03-26T07:03:12.660Z,25.53
2019-03-26T07:05:42.588Z,17.87
2019-03-26T07:08:10.903Z,17.23
2019-03-26T07:10:39.186Z,18.97
2019-03-26T07:13:07.880Z,20.03
2019-03-26T07:15:36.179Z,12.80
2019-03-26T07:18:04.407Z,19.43
2019-03-26T07:20:32.678Z,19.27
2019-03-26T07:23:01.036Z,18.23
2019-03-26T07:25:29.500Z,20.37
2019-03-26T07:27:58.322Z,19.13
2019-03-26T07:30:37.659Z,14.13
2019-03-26T07:33:05.883Z,14.50
2019-03-26T07:35:34.147Z,14.60
2019-03-26T07:38:02.532Z,21.73
2019-03-26T07:40:30.787Z,19.67
2019-03-26T07:42:59.064Z,12.60
2019-03-26T07:45:27.320Z,16.60
2019-03-26T07:47:55.892Z,23.40
2019-03-26T07:50:27.696Z,13.17
2019-03-26T07:52:56.819Z,17.20
2019-03-26T07:55:26.012Z,20.90
2019-03-26T07:57:54.652Z,10.80
2019-03-26T08:00:34.581Z,23.50
2019-03-26T08:03:06.152Z,10.20
2019-03-26T08:05:35.104Z,20.20
2019-03-26T08:08:03.991Z,15.27
2019-03-26T08:10:32.234Z,16.33
2019-03-26T08:13:00.581Z,26.47
2019-03-26T08:15:29.309Z,12.10
2019-03-26T08:17:57.620Z,16.70
2019-03-26T08:20:26.648Z,15.03
2019-03-26T08:22:55.739Z,10.93
2019-03-26T08:25:24.085Z,20.63
2019-03-26T08:27:52.304Z,13.80
2019-03-26T08:30:20.539Z,11.03
2019-03-26T08:32:48.848Z,20.80
2019-03-26T08:35:17.112Z,15.43
2019-03-26T08:37:45.659Z,10.57
2019-03-26T08:40:13.998Z,17.63
2019-03-26T08:42:42.231Z,18.97
2019-03-26T08:45:10.987Z,19.20
2019-03-26T08:47:39.223Z,20.73
2019-03-26T08:50:08.791Z,19.73
2019-03-26T08:52:37.008Z,21.90
2019-03-26T08:55:06.390Z,14.10
2019-03-26T08:57:45.268Z,17.70
2019-03-26T09:00:23.512Z,15.60
2019-03-26T09:03:01.857Z,8.53
2019-03-26T09:05:30.048Z,12.30
2019-03-26T09:07:58.359Z,16.70
2019-03-26T09:10:26.611Z,19.23
2019-03-26T09:12:59.961Z,13.17
2019-03-26T09:15:28.167Z,18.40
2019-03-26T09:17:56.538Z,14.07
2019-03-26T09:20:24.755Z,13.13
2019-03-26T09:22:53.074Z,15.53
2019-03-26T09:25:21.307Z,8.63
2019-03-26T09:27:52.341Z,23.47
2019-03-26T09:30:19.668Z,22.57
2019-03-26T09:32:47.979Z,5.70
2019-03-26T09:35:17.191Z,19.73
2019-03-26T09:37:45.459Z,12.80
2019-03-26T09:40:15.766Z,7.70
2019-03-26T09:42:44.039Z,22.50
2019-03-26T09:45:13.567Z,10.83
2019-03-26T09:47:54.058Z,5.50
2019-03-26T09:50:50.452Z,9.17
2019-03-26T09:53:18.256Z,16.20
2019-03-26T09:55:47.008Z,9.97
2019-03-26T09:58:15.459Z,3.53
2019-03-26T10:00:44.327Z,8.90
2019-03-26T10:03:16.453Z,14.73
2019-03-26T10:05:45.411Z,9.93
2019-03-26T10:08:17.562Z,17.63
2019-03-26T10:10:44.715Z,5.03
2019-03-26T10:13:13.052Z,9.77
2019-03-26T10:15:41.279Z,19.73
2019-03-26T10:18:09.574Z,16.77
2019-03-26T10:20:37.807Z,10.20
2019-03-26T10:23:06.052Z,7.47
2019-03-26T10:25:34.600Z,8.70
2019-03-26T10:28:02.851Z,6.77
2019-03-26T10:30:36.249Z,13.63
2019-03-26T10:33:04.771Z,8.73
2019-03-26T10:35:33.320Z,5.73
2019-03-26T10:38:01.701Z,6.43
2019-03-26T10:40:30.875Z,14.30
2019-03-26T10:42:59.457Z,11.80
2019-03-26T10:45:27.818Z,11.43
2019-03-26T10:47:56.139Z,11.23
2019-03-26T10:50:24.415Z,9.90
2019-03-26T10:52:52.681Z,7.93
2019-03-26T10:55:20.915Z,18.40
2019-03-26T10:57:49.220Z,6.33
2019-03-26T11:00:18.104Z,11.53
2019-03-26T11:02:46.459Z,10.57
2019-03-26T11:05:14.804Z,8.40
2019-03-26T11:07:43.080Z,9.63
2019-03-26T11:10:11.755Z,14.80
2019-03-26T11:12:40.016Z,5.87
2019-03-26T11:15:09.106Z,5.23
2019-03-26T11:17:37.414Z,11.20
2019-03-26T11:20:07.376Z,9.30
2019-03-26T11:22:37.427Z,4.17
2019-03-26T11:25:06.336Z,9.90
2019-03-26T11:27:34.753Z,3.13
2019-03-26T11:30:03.704Z,5.20
2019-03-26T11:32:31.964Z,5.97
2019-03-26T11:35:00.389Z,6.17
2019-03-26T11:37:28.768Z,7.83
2019-03-26T11:39:57.020Z,6.03
2019-03-26T11:42:25.232Z,5.67
2019-03-26T11:44:53.987Z,7.63
2019-03-26T11:47:22.210Z,5.30
2019-03-26T11:49:50.468Z,14.47
2019-03-26T11:52:18.696Z,7.97
2019-03-26T11:54:46.939Z,7.80
2019-03-26T11:57:15.209Z,4.77
2019-03-26T11:59:43.494Z,22.53
2019-03-26T12:02:11.931Z,8.27
2019-03-26T12:04:40.528Z,5.57
2019-03-26T12:07:08.775Z,5.60
2019-03-26T12:09:46.121Z,4.60
2019-03-26T12:12:08.175Z,12.57
2019-03-26T12:14:36.525Z,4.43
2019-03-26T12:17:04.763Z,6.30
2019-03-26T12:19:33.171Z,9.03
2019-03-26T12:22:01.415Z,11.07
2019-03-26T12:24:29.680Z,6.80
2019-03-26T12:26:57.934Z,7.50
2019-03-26T12:29:26.173Z,7.10
2019-03-26T12:31:54.401Z,5.13
2019-03-26T12:34:22.661Z,11.83
2019-03-26T12:36:50.920Z,12.70
2019-03-26T12:39:19.175Z,11.57
2019-03-26T12:41:47.527Z,5.47
2019-03-26T12:44:15.755Z,11.47
2019-03-26T12:46:44.000Z,5.93
2019-03-26T12:49:12.224Z,11.47
2019-03-26T12:51:40.705Z,4.57
2019-03-26T12:54:09.058Z,3.67
2019-03-26T12:56:38.174Z,9.50
2019-03-26T12:59:06.583Z,6.63
2019-03-26T13:01:34.833Z,5.87
2019-03-26T13:04:12.515Z,13.27
2019-03-26T13:06:33.223Z,9.30
2019-03-26T13:09:04.355Z,8.27
2019-03-26T13:11:32.630Z,8.13
2019-03-26T13:14:00.923Z,5.70
2019-03-26T13:16:29.180Z,5.60
2019-03-26T13:18:57.505Z,7.17
2019-03-26T13:21:25.743Z,6.17
2019-03-26T13:23:54.041Z,2.53
2019-03-26T13:26:23.016Z,3.87
2019-03-26T13:28:52.091Z,12.63
2019-03-26T13:31:20.340Z,2.97
2019-03-26T13:33:48.596Z,3.53
2019-03-26T13:36:16.864Z,9.23
2019-03-26T13:38:45.127Z,5.23
2019-03-26T13:41:13.631Z,0.83
2019-03-26T13:43:42.955Z,5.50
2019-03-26T13:46:14.834Z,4.03
2019-03-26T13:48:43.887Z,9.73
2019-03-26T13:51:12.119Z,2.33
2019-03-26T13:53:40.371Z,6.53
2019-03-26T13:56:08.630Z,8.10
2019-03-26T13:58:36.984Z,6.97
2019-03-26T14:01:05.243Z,5.37
2019-03-26T14:03:33.688Z,7.07
2019-03-26T14:06:02.508Z,5.63
2019-03-26T14:08:31.489Z,2.87
2019-03-26T14:11:00.471Z,6.03
2019-03-26T14:13:29.688Z,9.07
2019-03-26T14:15:58.322Z,4.83
2019-03-26T14:18:26.553Z,14.17
2019-03-26T14:20:54.828Z,4.13
2019-03-26T14:23:23.076Z,3.33
2019-03-26T14:25:51.328Z,4.33
2019-03-26T14:28:19.612Z,8.80
2019-03-26T14:30:47.856Z,4.47
2019-03-26T14:33:16.113Z,4.90
2019-03-26T14:35:44.356Z,4.57
2019-03-26T14:38:12.647Z,3.80
2019-03-26T14:40:53.537Z,7.43
2019-03-26T14:43:11.001Z,16.37
2019-03-26T14:45:42.178Z,3.93
2019-03-26T14:48:09.292Z,5.33
2019-03-26T14:50:37.568Z,9.73
2019-03-26T14:53:06.115Z,4.70
2019-03-26T14:55:34.393Z,22.13
2019-03-26T14:58:02.659Z,11.27
2019-03-26T15:00:31.091Z,7.73
2019-03-26T15:03:00.456Z,6.80
2019-03-26T15:05:29.127Z,4.50
2019-03-26T15:07:57.443Z,3.70
2019-03-26T15:10:25.865Z,5.30
2019-03-26T15:12:54.296Z,2.37
2019-03-26T15:15:22.579Z,2.90
2019-03-26T15:17:53.041Z,3.83
2019-03-26T15:20:21.272Z,8.97
2019-03-26T15:22:49.552Z,7.83
2019-03-26T15:25:17.787Z,4.20
2019-03-26T15:27:46.021Z,3.07
2019-03-26T15:30:14.963Z,6.60
2019-03-26T15:32:43.195Z,5.50
2019-03-26T15:35:11.437Z,4.43
2019-03-26T15:37:40.294Z,12.37
2019-03-26T15:40:09.255Z,9.03
2019-03-26T15:42:37.496Z,5.63
2019-03-26T15:45:06.715Z,6.60
2019-03-26T15:47:43.935Z,7.97
2019-03-26T15:50:28.744Z,3.77
2019-03-26T15:53:05.727Z,9.73
2019-03-26T15:55:34.223Z,5.27
2019-03-26T15:58:03.285Z,7.70
2019-03-26T16:00:32.360Z,9.93
2019-03-26T16:03:01.563Z,6.17
2019-03-26T16:05:29.859Z,5.50
2019-03-26T16:08:01.016Z,6.43
2019-03-26T16:10:29.260Z,9.40
2019-03-26T16:12:57.498Z,5.73
2019-03-26T16:15:25.758Z,8.47
2019-03-26T16:17:54.023Z,3.53
2019-03-26T16:20:22.256Z,3.63
2019-03-26T16:22:50.518Z,3.57
2019-03-26T16:25:19.421Z,10.80
2019-03-26T16:27:48.311Z,7.17
2019-03-26T16:30:18.091Z,4.87
2019-03-26T16:32:46.686Z,8.57
2019-03-26T16:35:15.883Z,9.97
2019-03-26T16:37:45.129Z,4.10
2019-03-26T16:40:14.284Z,8.97
2019-03-26T16:42:43.020Z,3.87
2019-03-26T16:45:12.151Z,5.10
2019-03-26T16:47:40.512Z,12.40
2019-03-26T16:50:09.113Z,6.37
2019-03-26T16:52:37.579Z,9.53
2019-03-26T16:55:06.604Z,8.40
2019-03-26T16:57:35.665Z,5.77
2019-03-26T17:00:05.044Z,18.33
2019-03-26T17:02:34.124Z,6.73
2019-03-26T17:05:03.184Z,8.77
2019-03-26T17:07:31.558Z,6.03
2019-03-26T17:10:00.860Z,10.87
2019-03-26T17:12:29.235Z,9.57
2019-03-26T17:14:58.244Z,8.43
2019-03-26T17:17:27.195Z,4.60
2019-03-26T17:19:55.708Z,5.80
2019-03-26T17:22:24.908Z,2.23
2019-03-26T17:24:53.463Z,8.40
2019-03-26T17:27:21.695Z,3.97
2019-03-26T17:29:49.959Z,8.40
2019-03-26T17:32:18.246Z,7.63
2019-03-26T17:34:46.469Z,10.07
2019-03-26T17:37:15.479Z,7.53
2019-03-26T17:39:45.577Z,4.87
2019-03-26T17:42:17.394Z,7.27
2019-03-26T17:44:43.874Z,9.00
2019-03-26T17:47:12.127Z,7.47
2019-03-26T17:49:40.395Z,9.53
2019-03-26T17:52:08.682Z,9.37
2019-03-26T17:54:36.886Z,7.77
2019-03-26T17:57:05.229Z,6.20
2019-03-26T17:59:33.519Z,4.90
2019-03-26T18:02:01.828Z,7.77
2019-03-26T18:04:31.492Z,9.37
2019-03-26T18:07:00.014Z,13.90
2019-03-26T18:09:28.325Z,9.27
2019-03-26T18:11:58.610Z,6.77
2019-03-26T18:14:27.563Z,9.63
2019-03-26T18:16:56.840Z,5.53
2019-03-26T18:19:25.839Z,11.50
2019-03-26T18:21:54.833Z,6.90
2019-03-26T18:24:26.155Z,12.67
2019-03-26T18:26:56.125Z,12.13
2019-03-26T18:29:24.469Z,14.10
2019-03-26T18:31:53.187Z,12.87
2019-03-26T18:34:22.163Z,7.50
2019-03-26T18:36:50.773Z,10.73
2019-03-26T18:39:19.212Z,6.27
2019-03-26T18:41:48.195Z,14.05
2019-03-26T18:44:16.880Z,12.27
2019-03-26T18:46:46.223Z,12.23
2019-03-26T18:49:15.063Z,9.63
2019-03-26T18:51:43.368Z,12.87
2019-03-26T18:54:11.642Z,13.30
2019-03-26T18:56:41.301Z,10.97
2019-03-26T18:59:10.243Z,12.47
2019-03-26T19:01:39.207Z,13.95
2019-03-26T19:04:08.195Z,6.63
2019-03-26T19:06:37.604Z,11.20
2019-03-26T19:09:07.116Z,9.13
2019-03-26T19:11:36.374Z,14.33
2019-03-26T19:14:04.813Z,13.97
2019-03-26T19:16:33.695Z,12.30
2019-03-26T19:19:02.790Z,14.07
2019-03-26T19:21:31.976Z,11.50
2019-03-26T19:24:04.512Z,13.50
2019-03-26T19:26:31.904Z,13.10
2019-03-26T19:29:01.471Z,7.10
2019-03-26T19:31:30.800Z,7.67
2019-03-26T19:33:59.464Z,14.13
2019-03-26T19:36:28.543Z,7.40
2019-03-26T19:38:57.580Z,9.07
2019-03-26T19:41:26.571Z,15.13
2019-03-26T19:43:55.276Z,17.50
2019-03-26T19:46:24.787Z,18.33
2019-03-26T19:48:53.678Z,6.27
2019-03-26T19:51:22.739Z,18.07
2019-03-26T19:53:51.735Z,20.30
2019-03-26T19:56:20.507Z,11.73
2019-03-26T19:58:49.487Z,11.00
2019-03-26T20:01:17.803Z,24.00
2019-03-26T20:03:49.215Z,19.27
2019-03-26T20:06:17.613Z,14.13
2019-03-26T20:08:46.543Z,27.47
2019-03-26T20:11:15.807Z,18.00
2019-03-26T20:13:45.016Z,15.73
2019-03-26T20:16:15.488Z,22.60
2019-03-26T20:18:43.951Z,21.50
2019-03-26T20:21:13.070Z,11.40
2019-03-26T20:23:42.133Z,10.10
2019-03-26T20:26:11.357Z,12.57
2019-03-26T20:28:40.422Z,23.13
2019-03-26T20:31:09.327Z,16.43
2019-03-26T20:33:38.137Z,17.83
2019-03-26T20:36:07.092Z,23.13
2019-03-26T20:38:37.511Z,15.23
2019-03-26T20:41:06.011Z,15.57
2019-03-26T20:43:37.406Z,26.13
2019-03-26T20:46:05.826Z,12.03
2019-03-26T20:48:34.724Z,34.33
2019-03-26T20:51:03.727Z,10.63
2019-03-26T20:53:32.983Z,24.13
2019-03-26T20:56:01.816Z,24.33
2019-03-26T20:58:30.716Z,25.93
2019-03-26T21:01:00.203Z,41.20
2019-03-26T21:03:29.407Z,22.97
2019-03-26T21:05:58.335Z,27.57
2019-03-26T21:08:27.075Z,27.77
2019-03-26T21:10:56.084Z,12.90
2019-03-26T21:13:25.085Z,30.00
2019-03-26T21:15:57.295Z,23.60
2019-03-26T21:18:24.331Z,30.40
2019-03-26T21:20:53.081Z,28.83
2019-03-26T21:23:22.380Z,28.13
2019-03-26T21:25:51.866Z,20.10
2019-03-26T21:28:23.566Z,32.43
2019-03-26T21:30:52.436Z,21.23
2019-03-26T21:33:21.403Z,31.93
2019-03-26T21:35:50.627Z,28.57
2019-03-26T21:38:19.911Z,20.87
2019-03-26T21:40:48.603Z,28.87
2019-03-26T21:43:17.903Z,24.63
2019-03-26T21:45:46.876Z,18.87
2019-03-26T21:48:16.911Z,23.70
2019-03-26T21:50:46.088Z,28.57
2019-03-26T21:53:14.875Z,34.70
2019-03-26T21:55:44.150Z,24.77
2019-03-26T21:58:12.868Z,21.77
2019-03-26T22:00:44.265Z,20.00
2019-03-26T22:03:12.696Z,21.43
2019-03-26T22:05:42.661Z,33.73
2019-03-26T22:08:11.280Z,25.40
2019-03-26T22:10:39.807Z,33.60
2019-03-26T22:13:08.614Z,21.03
2019-03-26T22:15:37.723Z,29.33
2019-03-26T22:18:06.315Z,30.37
2019-03-26T22:20:35.364Z,29.73
2019-03-26T22:23:04.951Z,26.47
2019-03-26T22:25:34.290Z,23.73
2019-03-26T22:28:02.937Z,27.27
2019-03-26T22:30:31.886Z,27.77
2019-03-26T22:33:01.368Z,25.30
2019-03-26T22:35:30.073Z,24.50
2019-03-26T22:37:58.488Z,26.97
2019-03-26T22:40:27.504Z,31.17
2019-03-26T22:42:59.359Z,31.43
2019-03-26T22:45:28.829Z,28.77
2019-03-26T22:47:57.304Z,33.13
2019-03-26T22:50:26.465Z,33.93
2019-03-26T22:52:55.534Z,33.40
2019-03-26T22:55:23.984Z,35.87
2019-03-26T22:57:53.075Z,33.43
2019-03-26T23:00:21.872Z,39.20
2019-03-26T23:02:51.005Z,30.43
2019-03-26T23:05:20.074Z,25.87
2019-03-26T23:07:48.875Z,32.90
2019-03-26T23:10:18.036Z,30.77
2019-03-26T23:12:47.260Z,38.23
2019-03-26T23:15:22.334Z,31.50
2019-03-26T23:17:51.187Z,29.87
2019-03-26T23:20:19.974Z,29.03
2019-03-26T23:22:48.536Z,33.30
2019-03-26T23:25:17.345Z,28.73
2019-03-26T23:27:46.140Z,40.37
2019-03-26T23:30:14.990Z,35.37
2019-03-26T23:32:44.548Z,41.27
2019-03-26T23:35:13.505Z,28.83
2019-03-26T23:37:42.193Z,35.10
2019-03-26T23:40:10.927Z,31.27
2019-03-26T23:42:39.545Z,25.57
2019-03-26T23:45:09.190Z,46.97
2019-03-26T23:47:38.051Z,34.17
2019-03-26T23:50:07.278Z,34.90
2019-03-26T23:52:35.875Z,30.23
2019-03-26T23:55:05.787Z,27.03
2019-03-26T23:57:37.276Z,34.70
